sensor_id;sensor_type;location;lat;lon;timestamp;P1;durP1;ratioP1;P2;durP2;ratioP2
35110;SDS011;21290;50.158;8.658;2023-06-10T00:01:15;9.52;;;8.05;;
35110;SDS011;21290;50.158;8.658;2023-06-10T00:03:41;12.13;;;8.45;;
35110;SDS011;21290;50.158;8.658;2023-06-10T00:06:10;14.18;;;7.75;;
35110;SDS011;21290;50.158;8.658;2023-06-10T00:08:36;8.77;;;7.82;;
35110;SDS011;21290;50.158;8.658;2023-06-10T00:11:03;9.55;;;7.72;;
35110;SDS011;21290;50.158;8.658;2023-06-10T00:13:30;8.43;;;7.25;;
35110;SDS011;21290;50.158;8.658;2023-06-10T00:15:57;10.20;;;7.68;;
35110;SDS011;21290;50.158;8.658;2023-06-10T00:18:23;10.07;;;7.72;;
35110;SDS011;21290;50.158;8.658;2023-06-10T00:23:21;15.73;;;7.78;;
35110;SDS011;21290;50.158;8.658;2023-06-10T00:25:48;11.70;;;8.05;;
35110;SDS011;21290;50.158;8.658;2023-06-10T00:28:15;10.40;;;7.43;;
35110;SDS011;21290;50.158;8.658;2023-06-10T00:30:42;9.18;;;7.78;;
35110;SDS011;21290;50.158;8.658;2023-06-10T00:33:08;11.73;;;7.97;;
35110;SDS011;21290;50.158;8.658;2023-06-10T00:35:36;13.98;;;7.75;;
35110;SDS011;21290;50.158;8.658;2023-06-10T00:38:03;12.15;;;7.88;;
35110;SDS011;21290;50.158;8.658;2023-06-10T00:40:29;10.38;;;8.00;;
35110;SDS011;21290;50.158;8.658;2023-06-10T00:42:56;16.67;;;8.38;;
35110;SDS011;21290;50.158;8.658;2023-06-10T00:45:23;11.02;;;7.85;;
35110;SDS011;21290;50.158;8.658;2023-06-10T00:47:50;8.88;;;7.90;;
35110;SDS011;21290;50.158;8.658;2023-06-10T00:50:17;9.25;;;8.35;;
35110;SDS011;21290;50.158;8.658;2023-06-10T00:52:43;10.23;;;8.52;;
35110;SDS011;21290;50.158;8.658;2023-06-10T00:55:12;9.85;;;8.57;;
35110;SDS011;21290;50.158;8.658;2023-06-10T00:57:39;12.02;;;8.48;;
35110;SDS011;21290;50.158;8.658;2023-06-10T01:00:06;10.95;;;8.27;;
35110;SDS011;21290;50.158;8.658;2023-06-10T01:02:35;11.15;;;8.63;;
35110;SDS011;21290;50.158;8.658;2023-06-10T01:05:02;10.60;;;8.45;;
35110;SDS011;21290;50.158;8.658;2023-06-10T01:13:00;10.77;;;7.88;;
35110;SDS011;21290;50.158;8.658;2023-06-10T01:15:32;17.52;;;8.07;;
35110;SDS011;21290;50.158;8.658;2023-06-10T01:18:07;11.48;;;8.75;;
35110;SDS011;21290;50.158;8.658;2023-06-10T01:20:37;10.77;;;8.07;;
35110;SDS011;21290;50.158;8.658;2023-06-10T01:23:06;9.40;;;7.65;;
35110;SDS011;21290;50.158;8.658;2023-06-10T01:25:34;10.13;;;8.18;;
35110;SDS011;21290;50.158;8.658;2023-06-10T01:28:14;13.07;;;9.43;;
35110;SDS011;21290;50.158;8.658;2023-06-10T01:30:49;10.88;;;8.50;;
35110;SDS011;21290;50.158;8.658;2023-06-10T01:33:35;11.73;;;8.18;;
35110;SDS011;21290;50.158;8.658;2023-06-10T01:36:03;12.80;;;7.82;;
35110;SDS011;21290;50.158;8.658;2023-06-10T01:38:32;9.43;;;8.40;;
35110;SDS011;21290;50.158;8.658;2023-06-10T01:41:02;9.52;;;8.30;;
35110;SDS011;21290;50.158;8.658;2023-06-10T01:43:34;13.93;;;8.13;;
35110;SDS011;21290;50.158;8.658;2023-06-10T01:46:01;12.88;;;8.45;;
35110;SDS011;21290;50.158;8.658;2023-06-10T01:48:27;8.80;;;7.90;;
35110;SDS011;21290;50.158;8.658;2023-06-10T01:50:54;12.77;;;8.80;;
35110;SDS011;21290;50.158;8.658;2023-06-10T01:53:23;11.57;;;8.82;;
35110;SDS011;21290;50.158;8.658;2023-06-10T01:55:50;9.43;;;8.45;;
35110;SDS011;21290;50.158;8.658;2023-06-10T01:58:17;11.82;;;8.70;;
35110;SDS011;21290;50.158;8.658;2023-06-10T02:00:44;12.43;;;8.52;;
35110;SDS011;21290;50.158;8.658;2023-06-10T02:03:10;10.35;;;9.05;;
35110;SDS011;21290;50.158;8.658;2023-06-10T02:05:37;12.85;;;9.25;;
35110;SDS011;21290;50.158;8.658;2023-06-10T02:08:05;12.30;;;8.45;;
35110;SDS011;21290;50.158;8.658;2023-06-10T02:10:31;10.25;;;8.25;;
35110;SDS011;21290;50.158;8.658;2023-06-10T02:12:58;11.07;;;9.00;;
35110;SDS011;21290;50.158;8.658;2023-06-10T02:15:25;13.43;;;8.55;;
35110;SDS011;21290;50.158;8.658;2023-06-10T02:17:52;11.48;;;9.02;;
35110;SDS011;21290;50.158;8.658;2023-06-10T02:20:18;14.90;;;9.27;;
35110;SDS011;21290;50.158;8.658;2023-06-10T02:22:45;9.15;;;7.68;;
35110;SDS011;21290;50.158;8.658;2023-06-10T02:25:12;9.93;;;8.43;;
35110;SDS011;21290;50.158;8.658;2023-06-10T02:27:39;11.52;;;8.88;;
35110;SDS011;21290;50.158;8.658;2023-06-10T02:30:06;16.75;;;8.70;;
35110;SDS011;21290;50.158;8.658;2023-06-10T02:32:35;10.35;;;8.55;;
35110;SDS011;21290;50.158;8.658;2023-06-10T02:35:02;13.00;;;8.52;;
35110;SDS011;21290;50.158;8.658;2023-06-10T02:37:29;9.65;;;8.55;;
35110;SDS011;21290;50.158;8.658;2023-06-10T02:39:56;13.02;;;8.93;;
35110;SDS011;21290;50.158;8.658;2023-06-10T02:42:23;9.82;;;8.70;;
35110;SDS011;21290;50.158;8.658;2023-06-10T02:44:49;9.52;;;8.48;;
35110;SDS011;21290;50.158;8.658;2023-06-10T02:47:16;11.88;;;8.80;;
35110;SDS011;21290;50.158;8.658;2023-06-10T02:49:43;11.27;;;8.90;;
35110;SDS011;21290;50.158;8.658;2023-06-10T02:52:09;10.50;;;8.55;;
35110;SDS011;21290;50.158;8.658;2023-06-10T02:54:37;10.95;;;8.68;;
35110;SDS011;21290;50.158;8.658;2023-06-10T02:57:04;9.50;;;8.18;;
35110;SDS011;21290;50.158;8.658;2023-06-10T02:59:32;12.75;;;8.93;;
35110;SDS011;21290;50.158;8.658;2023-06-10T03:01:59;13.95;;;8.02;;
35110;SDS011;21290;50.158;8.658;2023-06-10T03:04:27;13.88;;;9.95;;
35110;SDS011;21290;50.158;8.658;2023-06-10T03:06:55;12.30;;;8.55;;
35110;SDS011;21290;50.158;8.658;2023-06-10T03:09:22;10.15;;;8.57;;
35110;SDS011;21290;50.158;8.658;2023-06-10T03:11:48;11.75;;;8.90;;
35110;SDS011;21290;50.158;8.658;2023-06-10T03:14:15;12.73;;;8.70;;
35110;SDS011;21290;50.158;8.658;2023-06-10T03:16:42;14.18;;;8.88;;
35110;SDS011;21290;50.158;8.658;2023-06-10T03:19:09;10.07;;;8.60;;
35110;SDS011;21290;50.158;8.658;2023-06-10T03:21:36;12.55;;;8.30;;
35110;SDS011;21290;50.158;8.658;2023-06-10T03:24:03;15.98;;;9.43;;
35110;SDS011;21290;50.158;8.658;2023-06-10T03:26:31;11.95;;;9.43;;
35110;SDS011;21290;50.158;8.658;2023-06-10T03:28:58;9.73;;;8.27;;
35110;SDS011;21290;50.158;8.658;2023-06-10T03:31:24;18.52;;;8.77;;
35110;SDS011;21290;50.158;8.658;2023-06-10T03:33:51;11.02;;;8.75;;
35110;SDS011;21290;50.158;8.658;2023-06-10T03:36:18;11.48;;;8.30;;
35110;SDS011;21290;50.158;8.658;2023-06-10T03:38:45;12.48;;;8.30;;
35110;SDS011;21290;50.158;8.658;2023-06-10T03:41:12;9.38;;;8.35;;
35110;SDS011;21290;50.158;8.658;2023-06-10T03:43:38;10.25;;;8.40;;
35110;SDS011;21290;50.158;8.658;2023-06-10T03:46:06;10.80;;;8.63;;
35110;SDS011;21290;50.158;8.658;2023-06-10T03:48:33;10.07;;;8.45;;
35110;SDS011;21290;50.158;8.658;2023-06-10T03:51:00;10.93;;;8.27;;
35110;SDS011;21290;50.158;8.658;2023-06-10T03:53:27;9.48;;;7.53;;
35110;SDS011;21290;50.158;8.658;2023-06-10T03:55:53;15.00;;;8.23;;
35110;SDS011;21290;50.158;8.658;2023-06-10T03:58:20;11.85;;;7.88;;
35110;SDS011;21290;50.158;8.658;2023-06-10T04:00:47;13.40;;;8.10;;
35110;SDS011;21290;50.158;8.658;2023-06-10T04:03:16;10.48;;;9.02;;
35110;SDS011;21290;50.158;8.658;2023-06-10T04:05:42;10.98;;;8.25;;
35110;SDS011;21290;50.158;8.658;2023-06-10T04:08:09;11.50;;;7.75;;
35110;SDS011;21290;50.158;8.658;2023-06-10T04:10:36;9.45;;;7.72;;
35110;SDS011;21290;50.158;8.658;2023-06-10T04:13:03;14.10;;;8.13;;
35110;SDS011;21290;50.158;8.658;2023-06-10T04:15:30;10.68;;;8.25;;
35110;SDS011;21290;50.158;8.658;2023-06-10T04:17:59;9.77;;;8.48;;
35110;SDS011;21290;50.158;8.658;2023-06-10T04:20:27;10.52;;;7.95;;
35110;SDS011;21290;50.158;8.658;2023-06-10T04:22:54;11.35;;;7.82;;
35110;SDS011;21290;50.158;8.658;2023-06-10T04:25:21;8.38;;;7.32;;
35110;SDS011;21290;50.158;8.658;2023-06-10T04:27:48;11.02;;;7.90;;
35110;SDS011;21290;50.158;8.658;2023-06-10T04:30:15;9.13;;;8.10;;
35110;SDS011;21290;50.158;8.658;2023-06-10T04:32:43;17.15;;;7.82;;
35110;SDS011;21290;50.158;8.658;2023-06-10T04:35:13;8.98;;;7.57;;
35110;SDS011;21290;50.158;8.658;2023-06-10T04:37:41;9.18;;;7.55;;
35110;SDS011;21290;50.158;8.658;2023-06-10T04:40:08;11.63;;;7.43;;
35110;SDS011;21290;50.158;8.658;2023-06-10T04:42:36;8.90;;;7.50;;
35110;SDS011;21290;50.158;8.658;2023-06-10T04:45:03;8.48;;;7.63;;
35110;SDS011;21290;50.158;8.658;2023-06-10T04:47:30;10.93;;;7.57;;
35110;SDS011;21290;50.158;8.658;2023-06-10T04:50:00;11.90;;;7.72;;
35110;SDS011;21290;50.158;8.658;2023-06-10T04:52:28;8.38;;;7.35;;
35110;SDS011;21290;50.158;8.658;2023-06-10T04:54:57;9.23;;;7.32;;
35110;SDS011;21290;50.158;8.658;2023-06-10T04:57:24;13.52;;;7.80;;
35110;SDS011;21290;50.158;8.658;2023-06-10T04:59:52;13.27;;;8.02;;
35110;SDS011;21290;50.158;8.658;2023-06-10T05:02:19;10.98;;;7.30;;
35110;SDS011;21290;50.158;8.658;2023-06-10T05:04:46;10.77;;;7.75;;
35110;SDS011;21290;50.158;8.658;2023-06-10T05:07:12;10.07;;;8.00;;
35110;SDS011;21290;50.158;8.658;2023-06-10T05:09:39;9.13;;;7.32;;
35110;SDS011;21290;50.158;8.658;2023-06-10T05:12:06;10.10;;;7.97;;
35110;SDS011;21290;50.158;8.658;2023-06-10T05:14:33;7.75;;;6.95;;
35110;SDS011;21290;50.158;8.658;2023-06-10T05:17:00;8.77;;;6.82;;
35110;SDS011;21290;50.158;8.658;2023-06-10T05:19:26;7.90;;;7.10;;
35110;SDS011;21290;50.158;8.658;2023-06-10T05:21:53;9.75;;;7.10;;
35110;SDS011;21290;50.158;8.658;2023-06-10T05:24:20;14.02;;;8.30;;
35110;SDS011;21290;50.158;8.658;2023-06-10T05:26:47;13.07;;;7.07;;
35110;SDS011;21290;50.158;8.658;2023-06-10T05:29:14;11.38;;;7.30;;
35110;SDS011;21290;50.158;8.658;2023-06-10T05:31:41;10.20;;;7.43;;
35110;SDS011;21290;50.158;8.658;2023-06-10T05:34:09;8.50;;;6.72;;
35110;SDS011;21290;50.158;8.658;2023-06-10T05:36:35;12.07;;;6.90;;
35110;SDS011;21290;50.158;8.658;2023-06-10T05:39:02;11.02;;;7.00;;
35110;SDS011;21290;50.158;8.658;2023-06-10T05:41:29;8.43;;;6.30;;
35110;SDS011;21290;50.158;8.658;2023-06-10T05:43:56;9.73;;;6.75;;
35110;SDS011;21290;50.158;8.658;2023-06-10T05:46:23;9.38;;;7.43;;
35110;SDS011;21290;50.158;8.658;2023-06-10T05:48:50;11.27;;;7.55;;
35110;SDS011;21290;50.158;8.658;2023-06-10T05:51:16;10.43;;;6.80;;
35110;SDS011;21290;50.158;8.658;2023-06-10T05:53:43;10.88;;;6.72;;
35110;SDS011;21290;50.158;8.658;2023-06-10T05:56:13;12.30;;;6.85;;
35110;SDS011;21290;50.158;8.658;2023-06-10T05:58:40;11.35;;;6.75;;
35110;SDS011;21290;50.158;8.658;2023-06-10T06:01:07;9.38;;;6.40;;
35110;SDS011;21290;50.158;8.658;2023-06-10T06:03:34;11.48;;;6.38;;
35110;SDS011;21290;50.158;8.658;2023-06-10T06:06:01;7.30;;;6.50;;
35110;SDS011;21290;50.158;8.658;2023-06-10T06:08:29;10.15;;;6.30;;
35110;SDS011;21290;50.158;8.658;2023-06-10T06:10:55;18.88;;;9.30;;
35110;SDS011;21290;50.158;8.658;2023-06-10T06:13:22;16.08;;;7.47;;
35110;SDS011;21290;50.158;8.658;2023-06-10T06:15:49;12.07;;;6.18;;
35110;SDS011;21290;50.158;8.658;2023-06-10T06:18:16;7.20;;;6.10;;
35110;SDS011;21290;50.158;8.658;2023-06-10T06:20:44;11.35;;;6.10;;
35110;SDS011;21290;50.158;8.658;2023-06-10T06:23:11;12.82;;;5.95;;
35110;SDS011;21290;50.158;8.658;2023-06-10T06:25:38;7.13;;;5.90;;
35110;SDS011;21290;50.158;8.658;2023-06-10T06:28:06;8.77;;;6.47;;
35110;SDS011;21290;50.158;8.658;2023-06-10T06:30:33;11.10;;;6.32;;
35110;SDS011;21290;50.158;8.658;2023-06-10T06:33:00;8.02;;;6.82;;
35110;SDS011;21290;50.158;8.658;2023-06-10T06:35:26;7.68;;;5.78;;
35110;SDS011;21290;50.158;8.658;2023-06-10T06:37:53;7.00;;;5.57;;
35110;SDS011;21290;50.158;8.658;2023-06-10T06:40:20;9.70;;;6.18;;
35110;SDS011;21290;50.158;8.658;2023-06-10T06:42:46;7.68;;;6.03;;
35110;SDS011;21290;50.158;8.658;2023-06-10T06:45:13;10.93;;;5.88;;
35110;SDS011;21290;50.158;8.658;2023-06-10T06:47:41;8.07;;;5.63;;
35110;SDS011;21290;50.158;8.658;2023-06-10T06:50:08;10.75;;;5.75;;
35110;SDS011;21290;50.158;8.658;2023-06-10T06:52:35;9.02;;;5.45;;
35110;SDS011;21290;50.158;8.658;2023-06-10T06:55:02;11.15;;;5.68;;
35110;SDS011;21290;50.158;8.658;2023-06-10T06:57:28;8.15;;;5.55;;
35110;SDS011;21290;50.158;8.658;2023-06-10T06:59:55;7.13;;;5.32;;
35110;SDS011;21290;50.158;8.658;2023-06-10T07:02:22;10.30;;;5.97;;
35110;SDS011;21290;50.158;8.658;2023-06-10T07:04:49;9.82;;;7.18;;
35110;SDS011;21290;50.158;8.658;2023-06-10T07:07:16;11.70;;;5.70;;
35110;SDS011;21290;50.158;8.658;2023-06-10T07:09:42;7.07;;;5.45;;
35110;SDS011;21290;50.158;8.658;2023-06-10T07:12:09;5.60;;;4.75;;
35110;SDS011;21290;50.158;8.658;2023-06-10T07:14:36;8.63;;;5.05;;
35110;SDS011;21290;50.158;8.658;2023-06-10T07:17:03;8.82;;;5.50;;
35110;SDS011;21290;50.158;8.658;2023-06-10T07:19:30;6.05;;;5.22;;
35110;SDS011;21290;50.158;8.658;2023-06-10T07:21:56;6.88;;;4.70;;
35110;SDS011;21290;50.158;8.658;2023-06-10T07:24:23;5.95;;;5.00;;
35110;SDS011;21290;50.158;8.658;2023-06-10T07:26:50;6.80;;;5.10;;
35110;SDS011;21290;50.158;8.658;2023-06-10T07:29:17;7.25;;;4.60;;
35110;SDS011;21290;50.158;8.658;2023-06-10T07:31:44;6.38;;;4.70;;
35110;SDS011;21290;50.158;8.658;2023-06-10T07:34:11;7.88;;;4.35;;
35110;SDS011;21290;50.158;8.658;2023-06-10T07:36:37;7.80;;;5.00;;
35110;SDS011;21290;50.158;8.658;2023-06-10T07:39:04;5.57;;;4.78;;
35110;SDS011;21290;50.158;8.658;2023-06-10T07:41:32;5.25;;;4.50;;
35110;SDS011;21290;50.158;8.658;2023-06-10T07:43:58;9.23;;;4.95;;
35110;SDS011;21290;50.158;8.658;2023-06-10T07:46:25;6.40;;;4.85;;
35110;SDS011;21290;50.158;8.658;2023-06-10T07:48:53;8.63;;;4.72;;
35110;SDS011;21290;50.158;8.658;2023-06-10T07:51:20;6.72;;;4.68;;
35110;SDS011;21290;50.158;8.658;2023-06-10T07:53:47;8.57;;;4.57;;
35110;SDS011;21290;50.158;8.658;2023-06-10T07:56:14;8.15;;;4.53;;
35110;SDS011;21290;50.158;8.658;2023-06-10T07:58:41;13.70;;;4.47;;
35110;SDS011;21290;50.158;8.658;2023-06-10T08:01:08;6.53;;;4.95;;
35110;SDS011;21290;50.158;8.658;2023-06-10T08:03:35;7.20;;;4.40;;
35110;SDS011;21290;50.158;8.658;2023-06-10T08:06:02;8.52;;;4.85;;
35110;SDS011;21290;50.158;8.658;2023-06-10T08:08:29;7.90;;;4.25;;
35110;SDS011;21290;50.158;8.658;2023-06-10T08:10:55;6.88;;;4.68;;
35110;SDS011;21290;50.158;8.658;2023-06-10T08:13:22;6.20;;;4.35;;
35110;SDS011;21290;50.158;8.658;2023-06-10T08:15:48;5.22;;;4.00;;
35110;SDS011;21290;50.158;8.658;2023-06-10T08:18:17;6.00;;;4.40;;
35110;SDS011;21290;50.158;8.658;2023-06-10T08:20:43;6.00;;;4.40;;
35110;SDS011;21290;50.158;8.658;2023-06-10T08:23:10;5.93;;;4.03;;
35110;SDS011;21290;50.158;8.658;2023-06-10T08:25:37;13.95;;;4.05;;
35110;SDS011;21290;50.158;8.658;2023-06-10T08:28:04;5.68;;;3.83;;
35110;SDS011;21290;50.158;8.658;2023-06-10T08:30:30;7.43;;;3.90;;
35110;SDS011;21290;50.158;8.658;2023-06-10T08:32:57;6.22;;;3.55;;
35110;SDS011;21290;50.158;8.658;2023-06-10T08:35:24;7.15;;;3.50;;
35110;SDS011;21290;50.158;8.658;2023-06-10T08:37:51;5.68;;;3.90;;
35110;SDS011;21290;50.158;8.658;2023-06-10T08:40:17;7.03;;;3.78;;
35110;SDS011;21290;50.158;8.658;2023-06-10T08:45:37;7.68;;;3.80;;
35110;SDS011;21290;50.158;8.658;2023-06-10T08:48:04;5.30;;;3.10;;
35110;SDS011;21290;50.158;8.658;2023-06-10T08:50:35;8.30;;;3.50;;
35110;SDS011;21290;50.158;8.658;2023-06-10T08:53:06;7.00;;;3.13;;
35110;SDS011;21290;50.158;8.658;2023-06-10T08:55:35;6.78;;;3.20;;
35110;SDS011;21290;50.158;8.658;2023-06-10T08:58:04;10.95;;;3.20;;
35110;SDS011;21290;50.158;8.658;2023-06-10T09:00:31;5.00;;;3.13;;
35110;SDS011;21290;50.158;8.658;2023-06-10T09:02:58;4.60;;;3.15;;
35110;SDS011;21290;50.158;8.658;2023-06-10T09:05:32;6.05;;;2.97;;
35110;SDS011;21290;50.158;8.658;2023-06-10T09:08:00;8.23;;;3.25;;
35110;SDS011;21290;50.158;8.658;2023-06-10T09:10:27;6.78;;;3.00;;
35110;SDS011;21290;50.158;8.658;2023-06-10T09:15:22;3.83;;;3.00;;
35110;SDS011;21290;50.158;8.658;2023-06-10T09:17:48;9.75;;;3.45;;
35110;SDS011;21290;50.158;8.658;2023-06-10T09:20:16;7.95;;;3.90;;
35110;SDS011;21290;50.158;8.658;2023-06-10T09:22:43;10.48;;;3.13;;
35110;SDS011;21290;50.158;8.658;2023-06-10T09:25:11;7.25;;;2.88;;
35110;SDS011;21290;50.158;8.658;2023-06-10T09:30:27;4.78;;;3.10;;
35110;SDS011;21290;50.158;8.658;2023-06-10T09:33:00;6.05;;;2.85;;
35110;SDS011;21290;50.158;8.658;2023-06-10T09:35:29;7.28;;;2.85;;
35110;SDS011;21290;50.158;8.658;2023-06-10T09:37:57;8.27;;;3.15;;
35110;SDS011;21290;50.158;8.658;2023-06-10T09:40:25;9.50;;;4.30;;
35110;SDS011;21290;50.158;8.658;2023-06-10T09:42:56;4.75;;;2.80;;
35110;SDS011;21290;50.158;8.658;2023-06-10T09:45:27;7.07;;;3.42;;
35110;SDS011;21290;50.158;8.658;2023-06-10T09:47:57;7.28;;;3.05;;
35110;SDS011;21290;50.158;8.658;2023-06-10T09:50:24;6.95;;;2.88;;
35110;SDS011;21290;50.158;8.658;2023-06-10T09:52:51;4.63;;;2.60;;
35110;SDS011;21290;50.158;8.658;2023-06-10T09:55:17;6.40;;;3.33;;
35110;SDS011;21290;50.158;8.658;2023-06-10T09:57:45;5.40;;;3.10;;
35110;SDS011;21290;50.158;8.658;2023-06-10T10:00:16;6.95;;;2.72;;
35110;SDS011;21290;50.158;8.658;2023-06-10T10:02:46;3.53;;;2.67;;
35110;SDS011;21290;50.158;8.658;2023-06-10T10:05:16;5.40;;;2.80;;
35110;SDS011;21290;50.158;8.658;2023-06-10T10:07:45;5.40;;;2.83;;
35110;SDS011;21290;50.158;8.658;2023-06-10T10:10:12;4.90;;;2.67;;
35110;SDS011;21290;50.158;8.658;2023-06-10T10:12:41;5.60;;;2.88;;
35110;SDS011;21290;50.158;8.658;2023-06-10T10:15:09;5.60;;;2.63;;
35110;SDS011;21290;50.158;8.658;2023-06-10T10:17:38;10.73;;;2.63;;
35110;SDS011;21290;50.158;8.658;2023-06-10T10:20:12;5.00;;;2.67;;
35110;SDS011;21290;50.158;8.658;2023-06-10T10:22:43;4.43;;;2.33;;
35110;SDS011;21290;50.158;8.658;2023-06-10T10:25:11;6.40;;;2.63;;
35110;SDS011;21290;50.158;8.658;2023-06-10T10:27:50;4.68;;;2.50;;
35110;SDS011;21290;50.158;8.658;2023-06-10T10:30:21;4.75;;;2.88;;
35110;SDS011;21290;50.158;8.658;2023-06-10T10:35:35;3.47;;;2.70;;
35110;SDS011;21290;50.158;8.658;2023-06-10T10:38:03;6.88;;;2.95;;
35110;SDS011;21290;50.158;8.658;2023-06-10T10:42:59;6.35;;;2.70;;
35110;SDS011;21290;50.158;8.658;2023-06-10T10:45:27;6.07;;;2.92;;
35110;SDS011;21290;50.158;8.658;2023-06-10T10:47:55;4.07;;;2.70;;
35110;SDS011;21290;50.158;8.658;2023-06-10T10:50:23;2.53;;;2.17;;
35110;SDS011;21290;50.158;8.658;2023-06-10T10:55:27;4.32;;;2.40;;
35110;SDS011;21290;50.158;8.658;2023-06-10T11:00:32;5.57;;;2.92;;
35110;SDS011;21290;50.158;8.658;2023-06-10T11:03:13;4.75;;;2.53;;
35110;SDS011;21290;50.158;8.658;2023-06-10T11:05:44;7.38;;;2.50;;
35110;SDS011;21290;50.158;8.658;2023-06-10T11:08:45;5.45;;;2.35;;
35110;SDS011;21290;50.158;8.658;2023-06-10T11:11:17;6.25;;;2.58;;
35110;SDS011;21290;50.158;8.658;2023-06-10T11:16:31;4.78;;;2.33;;
35110;SDS011;21290;50.158;8.658;2023-06-10T11:19:08;5.45;;;2.33;;
35110;SDS011;21290;50.158;8.658;2023-06-10T11:24:50;2.90;;;2.20;;
35110;SDS011;21290;50.158;8.658;2023-06-10T11:27:18;5.10;;;2.35;;
35110;SDS011;21290;50.158;8.658;2023-06-10T11:30:17;3.00;;;2.15;;
35110;SDS011;21290;50.158;8.658;2023-06-10T11:32:50;3.35;;;2.20;;
35110;SDS011;21290;50.158;8.658;2023-06-10T11:35:23;5.20;;;2.20;;
35110;SDS011;21290;50.158;8.658;2023-06-10T11:37:50;6.03;;;2.47;;
35110;SDS011;21290;50.158;8.658;2023-06-10T11:40:17;4.65;;;2.28;;
35110;SDS011;21290;50.158;8.658;2023-06-10T11:42:44;5.43;;;2.30;;
35110;SDS011;21290;50.158;8.658;2023-06-10T11:45:14;7.38;;;2.30;;
35110;SDS011;21290;50.158;8.658;2023-06-10T11:47:54;5.20;;;2.67;;
35110;SDS011;21290;50.158;8.658;2023-06-10T11:50:32;3.83;;;2.53;;
35110;SDS011;21290;50.158;8.658;2023-06-10T11:53:00;4.60;;;2.50;;
35110;SDS011;21290;50.158;8.658;2023-06-10T11:58:16;7.70;;;5.13;;
35110;SDS011;21290;50.158;8.658;2023-06-10T12:00:47;7.47;;;3.90;;
35110;SDS011;21290;50.158;8.658;2023-06-10T12:03:15;4.70;;;3.28;;
35110;SDS011;21290;50.158;8.658;2023-06-10T12:05:56;6.10;;;3.45;;
35110;SDS011;21290;50.158;8.658;2023-06-10T12:08:26;4.97;;;3.33;;
35110;SDS011;21290;50.158;8.658;2023-06-10T12:10:54;5.68;;;3.90;;
35110;SDS011;21290;50.158;8.658;2023-06-10T12:13:22;4.30;;;3.75;;
35110;SDS011;21290;50.158;8.658;2023-06-10T12:18:20;3.75;;;3.22;;
35110;SDS011;21290;50.158;8.658;2023-06-10T12:20:50;6.70;;;3.80;;
35110;SDS011;21290;50.158;8.658;2023-06-10T12:23:17;3.60;;;3.30;;
35110;SDS011;21290;50.158;8.658;2023-06-10T12:25:51;6.65;;;3.75;;
35110;SDS011;21290;50.158;8.658;2023-06-10T12:28:26;6.20;;;3.40;;
35110;SDS011;21290;50.158;8.658;2023-06-10T12:31:08;5.57;;;3.80;;
35110;SDS011;21290;50.158;8.658;2023-06-10T12:33:35;6.82;;;3.65;;
35110;SDS011;21290;50.158;8.658;2023-06-10T12:36:02;6.10;;;3.63;;
35110;SDS011;21290;50.158;8.658;2023-06-10T12:38:30;5.47;;;3.97;;
35110;SDS011;21290;50.158;8.658;2023-06-10T12:41:01;9.15;;;4.00;;
35110;SDS011;21290;50.158;8.658;2023-06-10T12:43:30;6.53;;;3.75;;
35110;SDS011;21290;50.158;8.658;2023-06-10T12:46:08;6.60;;;3.80;;
35110;SDS011;21290;50.158;8.658;2023-06-10T12:48:35;11.13;;;3.80;;
35110;SDS011;21290;50.158;8.658;2023-06-10T12:51:02;8.52;;;3.83;;
35110;SDS011;21290;50.158;8.658;2023-06-10T12:53:29;7.63;;;4.15;;
35110;SDS011;21290;50.158;8.658;2023-06-10T12:55:56;8.88;;;4.20;;
35110;SDS011;21290;50.158;8.658;2023-06-10T12:58:24;7.03;;;3.90;;
35110;SDS011;21290;50.158;8.658;2023-06-10T13:00:50;6.10;;;4.03;;
35110;SDS011;21290;50.158;8.658;2023-06-10T13:03:20;9.35;;;4.28;;
35110;SDS011;21290;50.158;8.658;2023-06-10T13:05:47;5.18;;;4.03;;
35110;SDS011;21290;50.158;8.658;2023-06-10T13:08:14;7.95;;;4.40;;
35110;SDS011;21290;50.158;8.658;2023-06-10T13:10:41;7.85;;;4.18;;
35110;SDS011;21290;50.158;8.658;2023-06-10T13:13:08;11.38;;;4.57;;
35110;SDS011;21290;50.158;8.658;2023-06-10T13:15:36;8.32;;;4.40;;
35110;SDS011;21290;50.158;8.658;2023-06-10T13:18:09;5.93;;;3.83;;
35110;SDS011;21290;50.158;8.658;2023-06-10T13:20:36;4.40;;;3.90;;
35110;SDS011;21290;50.158;8.658;2023-06-10T13:23:02;11.02;;;4.18;;
35110;SDS011;21290;50.158;8.658;2023-06-10T13:25:29;5.97;;;4.13;;
35110;SDS011;21290;50.158;8.658;2023-06-10T13:27:56;12.45;;;5.45;;
35110;SDS011;21290;50.158;8.658;2023-06-10T13:30:23;5.90;;;4.15;;
35110;SDS011;21290;50.158;8.658;2023-06-10T13:32:50;7.35;;;4.15;;
35110;SDS011;21290;50.158;8.658;2023-06-10T13:35:17;4.72;;;3.80;;
35110;SDS011;21290;50.158;8.658;2023-06-10T13:37:43;6.25;;;4.05;;
35110;SDS011;21290;50.158;8.658;2023-06-10T13:40:11;8.82;;;4.60;;
35110;SDS011;21290;50.158;8.658;2023-06-10T13:42:38;8.40;;;4.03;;
35110;SDS011;21290;50.158;8.658;2023-06-10T13:45:05;6.47;;;3.92;;
35110;SDS011;21290;50.158;8.658;2023-06-10T13:47:32;5.82;;;3.78;;
35110;SDS011;21290;50.158;8.658;2023-06-10T13:49:59;5.72;;;3.92;;
35110;SDS011;21290;50.158;8.658;2023-06-10T13:52:26;5.47;;;3.47;;
35110;SDS011;21290;50.158;8.658;2023-06-10T13:54:52;5.82;;;3.55;;
35110;SDS011;21290;50.158;8.658;2023-06-10T13:57:19;7.95;;;3.55;;
35110;SDS011;21290;50.158;8.658;2023-06-10T13:59:46;7.93;;;3.17;;
35110;SDS011;21290;50.158;8.658;2023-06-10T14:02:13;6.03;;;3.22;;
35110;SDS011;21290;50.158;8.658;2023-06-10T14:04:39;12.15;;;3.47;;
35110;SDS011;21290;50.158;8.658;2023-06-10T14:07:06;6.45;;;3.28;;
35110;SDS011;21290;50.158;8.658;2023-06-10T14:09:33;4.40;;;3.13;;
35110;SDS011;21290;50.158;8.658;2023-06-10T14:12:00;4.40;;;3.20;;
35110;SDS011;21290;50.158;8.658;2023-06-10T14:14:26;7.88;;;3.47;;
35110;SDS011;21290;50.158;8.658;2023-06-10T14:16:53;6.72;;;3.20;;
35110;SDS011;21290;50.158;8.658;2023-06-10T14:19:20;3.97;;;3.20;;
35110;SDS011;21290;50.158;8.658;2023-06-10T14:21:47;3.78;;;3.25;;
35110;SDS011;21290;50.158;8.658;2023-06-10T14:24:15;4.57;;;3.42;;
35110;SDS011;21290;50.158;8.658;2023-06-10T14:26:42;5.95;;;3.40;;
35110;SDS011;21290;50.158;8.658;2023-06-10T14:29:08;5.60;;;3.17;;
35110;SDS011;21290;50.158;8.658;2023-06-10T14:31:36;6.00;;;3.08;;
35110;SDS011;21290;50.158;8.658;2023-06-10T14:34:03;5.95;;;3.20;;
35110;SDS011;21290;50.158;8.658;2023-06-10T14:36:31;7.47;;;3.55;;
35110;SDS011;21290;50.158;8.658;2023-06-10T14:38:58;6.50;;;2.88;;
35110;SDS011;21290;50.158;8.658;2023-06-10T14:41:25;3.70;;;2.95;;
35110;SDS011;21290;50.158;8.658;2023-06-10T14:43:52;4.13;;;3.20;;
35110;SDS011;21290;50.158;8.658;2023-06-10T14:46:19;4.13;;;3.20;;
35110;SDS011;21290;50.158;8.658;2023-06-10T14:48:48;4.95;;;3.60;;
35110;SDS011;21290;50.158;8.658;2023-06-10T14:51:16;5.38;;;3.40;;
35110;SDS011;21290;50.158;8.658;2023-06-10T14:53:43;4.53;;;3.20;;
35110;SDS011;21290;50.158;8.658;2023-06-10T14:56:09;4.72;;;3.30;;
35110;SDS011;21290;50.158;8.658;2023-06-10T14:58:36;4.05;;;3.13;;
35110;SDS011;21290;50.158;8.658;2023-06-10T15:01:03;4.32;;;3.50;;
35110;SDS011;21290;50.158;8.658;2023-06-10T15:03:30;5.32;;;3.47;;
35110;SDS011;21290;50.158;8.658;2023-06-10T15:05:57;5.85;;;3.20;;
35110;SDS011;21290;50.158;8.658;2023-06-10T15:08:24;6.18;;;3.28;;
35110;SDS011;21290;50.158;8.658;2023-06-10T15:10:50;5.47;;;3.75;;
35110;SDS011;21290;50.158;8.658;2023-06-10T15:13:17;4.28;;;3.25;;
35110;SDS011;21290;50.158;8.658;2023-06-10T15:15:44;10.52;;;3.35;;
35110;SDS011;21290;50.158;8.658;2023-06-10T15:18:11;7.68;;;4.10;;
35110;SDS011;21290;50.158;8.658;2023-06-10T15:20:38;4.03;;;3.25;;
35110;SDS011;21290;50.158;8.658;2023-06-10T15:23:05;7.10;;;3.33;;
35110;SDS011;21290;50.158;8.658;2023-06-10T15:28:00;5.40;;;3.15;;